Time,TemperatureF,DewpointF,PressureIn,WindDirection,WindDirectionDegrees,WindSpeedMPH,WindSpeedGustMPH,Humidity,HourlyPrecipIn,Conditions,Clouds,dailyrainin,SolarRadiationWatts/m^2,SoftwareType,DateUTC
2013-02-27 00:01:00,8.0,-6.0,-100.00,WNW,292,2.0,3.0,52,0.00,,,0.00,0.000000,,2013-02-27 07:01:00,
2013-02-27 00:12:00,8.0,-6.0,-100.00,WNW,292,2.0,3.0,52,0.00,,,0.00,0.000000,,2013-02-27 07:12:00,
2013-02-27 00:21:00,8.0,-6.0,-100.00,WNW,292,2.0,3.0,52,0.00,,,0.00,0.000000,,2013-02-27 07:21:00,
2013-02-27 00:42:00,9.0,-6.0,-100.00,West,278,3.0,5.0,50,0.00,,,0.00,0.000000,,2013-02-27 07:42:00,
2013-02-27 00:52:00,9.0,-6.0,-100.00,West,278,3.0,5.0,50,0.00,,,0.00,0.000000,,2013-02-27 07:52:00,
2013-02-27 01:01:00,9.0,-6.0,-100.00,West,278,3.0,5.0,50,0.00,,,0.00,0.000000,,2013-02-27 08:01:00,
2013-02-27 01:11:00,9.0,-6.0,-100.00,West,278,3.0,5.0,50,0.00,,,0.00,0.000000,,2013-02-27 08:11:00,
2013-02-27 01:21:00,9.0,-6.0,-100.00,West,278,3.0,5.0,50,0.00,,,0.00,0.000000,,2013-02-27 08:21:00,
2013-02-27 01:42:00,6.0,-8.0,-100.00,WNW,290,2.0,4.0,52,0.00,,,0.00,0.000000,,2013-02-27 08:42:00,
2013-02-27 01:53:00,6.0,-8.0,-100.00,WNW,290,2.0,4.0,52,0.00,,,0.00,0.000000,,2013-02-27 08:53:00,
2013-02-27 02:02:00,6.0,-8.0,-100.00,WNW,290,2.0,4.0,52,0.00,,,0.00,0.000000,,2013-02-27 09:02:00,
2013-02-27 02:12:00,6.0,-8.0,-100.00,WNW,290,2.0,4.0,52,0.00,,,0.00,0.000000,,2013-02-27 09:12:00,
2013-02-27 02:21:00,6.0,-8.0,-100.00,WNW,290,2.0,4.0,52,0.00,,,0.00,0.000000,,2013-02-27 09:21:00,
2013-02-27 02:42:00,4.0,-9.0,-100.00,NW,318,2.0,4.0,54,0.00,,,0.00,0.000000,,2013-02-27 09:42:00,
2013-02-27 02:52:00,4.0,-9.0,-100.00,NW,318,2.0,4.0,54,0.00,,,0.00,0.000000,,2013-02-27 09:52:00,
2013-02-27 03:01:00,4.0,-9.0,-100.00,NW,318,2.0,4.0,54,0.00,,,0.00,0.000000,,2013-02-27 10:01:00,
2013-02-27 03:12:00,4.0,-9.0,-100.00,NW,318,2.0,4.0,54,0.00,,,0.00,0.000000,,2013-02-27 10:12:00,
2013-02-27 03:21:00,4.0,-9.0,-100.00,NW,318,2.0,4.0,54,0.00,,,0.00,0.000000,,2013-02-27 10:21:00,
2013-02-27 03:42:00,5.0,-8.0,-100.00,WNW,282,2.0,3.0,55,0.00,,,0.00,0.000000,,2013-02-27 10:42:00,
2013-02-27 03:53:00,5.0,-8.0,-100.00,WNW,282,2.0,3.0,55,0.00,,,0.00,0.000000,,2013-02-27 10:53:00,
2013-02-27 04:02:00,5.0,-8.0,-100.00,WNW,282,2.0,3.0,55,0.00,,,0.00,0.000000,,2013-02-27 11:02:00,
2013-02-27 04:12:00,5.0,-8.0,-100.00,WNW,282,2.0,3.0,55,0.00,,,0.00,0.000000,,2013-02-27 11:12:00,
2013-02-27 04:22:00,5.0,-8.0,-100.00,WNW,282,2.0,3.0,55,0.00,,,0.00,0.000000,,2013-02-27 11:22:00,
2013-02-27 04:42:00,3.0,-9.0,-100.00,WNW,286,2.0,3.0,56,0.00,,,0.00,0.000000,,2013-02-27 11:42:00,
2013-02-27 04:52:00,3.0,-9.0,-100.00,WNW,286,2.0,3.0,56,0.00,,,0.00,0.000000,,2013-02-27 11:52:00,
2013-02-27 05:02:00,3.0,-9.0,-100.00,WNW,286,2.0,3.0,56,0.00,,,0.00,0.000000,,2013-02-27 12:02:00,
2013-02-27 05:13:00,3.0,-9.0,-100.00,WNW,286,2.0,3.0,56,0.00,,,0.00,0.000000,,2013-02-27 12:13:00,
2013-02-27 05:22:00,3.0,-9.0,-100.00,WNW,286,2.0,3.0,56,0.00,,,0.00,0.000000,,2013-02-27 12:22:00,
2013-02-27 05:42:00,2.0,-9.0,-100.00,WNW,293,2.0,3.0,60,0.00,,,0.00,0.000000,,2013-02-27 12:42:00,
2013-02-27 05:53:00,2.0,-9.0,-100.00,WNW,293,2.0,3.0,60,0.00,,,0.00,0.000000,,2013-02-27 12:53:00,
2013-02-27 06:02:00,2.0,-9.0,-100.00,WNW,293,2.0,3.0,60,0.00,,,0.00,0.000000,,2013-02-27 13:02:00,
2013-02-27 06:11:00,2.0,-9.0,-100.00,WNW,293,2.0,3.0,60,0.00,,,0.00,0.000000,,2013-02-27 13:11:00,
2013-02-27 06:22:00,2.0,-9.0,-100.00,WNW,293,2.0,3.0,60,0.00,,,0.00,0.000000,,2013-02-27 13:22:00,
2013-02-27 06:42:00,2.0,-9.0,-100.00,WSW,257,2.0,3.0,59,0.00,,,0.00,0.000000,,2013-02-27 13:42:00,
2013-02-27 06:52:00,2.0,-9.0,-100.00,WSW,257,2.0,3.0,59,0.00,,,0.00,0.000000,,2013-02-27 13:52:00,
2013-02-27 07:02:00,2.0,-9.0,-100.00,WSW,257,2.0,3.0,59,0.00,,,0.00,0.000000,,2013-02-27 14:02:00,
2013-02-27 07:12:00,2.0,-9.0,-100.00,WSW,257,2.0,3.0,59,0.00,,,0.00,0.000000,,2013-02-27 14:12:00,
2013-02-27 07:21:00,2.0,-9.0,-100.00,WSW,257,2.0,3.0,59,0.00,,,0.00,0.000000,,2013-02-27 14:21:00,
2013-02-27 07:42:00,12.0,-4.0,-100.00,NW,308,1.0,3.0,48,0.00,,,0.00,87.000000,,2013-02-27 14:42:00,
2013-02-27 07:52:00,12.0,-4.0,-100.00,NW,308,1.0,3.0,48,0.00,,,0.00,87.000000,,2013-02-27 14:52:00,
2013-02-27 08:12:00,12.0,-4.0,-100.00,NW,308,1.0,3.0,48,0.00,,,0.00,87.000000,,2013-02-27 15:12:00,
2013-02-27 08:22:00,12.0,-4.0,-100.00,NW,308,1.0,3.0,48,0.00,,,0.00,87.000000,,2013-02-27 15:22:00,
2013-02-27 08:42:00,18.0,-5.0,-100.00,ESE,108,2.0,3.0,35,0.00,,,0.00,382.000000,,2013-02-27 15:42:00,
2013-02-27 08:52:00,18.0,-5.0,-100.00,ESE,108,2.0,3.0,35,0.00,,,0.00,382.000000,,2013-02-27 15:52:00,
2013-02-27 09:02:00,18.0,-5.0,-100.00,ESE,108,2.0,3.0,35,0.00,,,0.00,382.000000,,2013-02-27 16:02:00,
2013-02-27 09:12:00,18.0,-5.0,-100.00,ESE,108,2.0,3.0,35,0.00,,,0.00,382.000000,,2013-02-27 16:12:00,
2013-02-27 09:22:00,18.0,-5.0,-100.00,ESE,108,2.0,3.0,35,0.00,,,0.00,382.000000,,2013-02-27 16:22:00,
2013-02-27 09:42:00,24.0,-1.0,-100.00,SE,137,2.0,4.0,33,0.00,,,0.00,636.000000,,2013-02-27 16:42:00,
2013-02-27 09:52:00,24.0,-1.0,-100.00,SE,137,2.0,4.0,33,0.00,,,0.00,636.000000,,2013-02-27 16:52:00,
2013-02-27 10:42:00,27.0,0.0,-100.00,East,99,3.0,6.0,30,0.00,,,0.00,826.000000,,2013-02-27 17:42:00,
2013-02-27 10:52:00,27.0,0.0,-100.00,East,99,3.0,6.0,30,0.00,,,0.00,826.000000,,2013-02-27 17:52:00,
2013-02-27 11:11:00,27.0,0.0,-100.00,East,99,3.0,6.0,30,0.00,,,0.00,826.000000,,2013-02-27 18:11:00,
2013-02-27 11:22:00,27.0,0.0,-100.00,East,99,3.0,6.0,30,0.00,,,0.00,826.000000,,2013-02-27 18:22:00,
2013-02-27 11:42:00,29.0,-1.0,-100.00,South,170,3.0,6.0,27,0.00,,,0.00,956.000000,,2013-02-27 18:42:00,
2013-02-27 11:52:00,29.0,-1.0,-100.00,South,170,3.0,6.0,27,0.00,,,0.00,956.000000,,2013-02-27 18:52:00,
2013-02-27 12:01:00,29.0,-1.0,-100.00,South,170,3.0,6.0,27,0.00,,,0.00,956.000000,,2013-02-27 19:01:00,
2013-02-27 12:12:00,29.0,-1.0,-100.00,South,170,3.0,6.0,27,0.00,,,0.00,956.000000,,2013-02-27 19:12:00,
2013-02-27 12:21:00,29.0,-1.0,-100.00,South,170,3.0,6.0,27,0.00,,,0.00,956.000000,,2013-02-27 19:21:00,
2013-02-27 12:42:00,29.0,1.0,-100.00,SE,141,3.0,5.0,30,0.00,,,0.00,825.000000,,2013-02-27 19:42:00,
2013-02-27 12:52:00,29.0,1.0,-100.00,SE,141,3.0,5.0,30,0.00,,,0.00,825.000000,,2013-02-27 19:52:00,
2013-02-27 13:01:00,29.0,1.0,-100.00,SE,141,3.0,5.0,30,0.00,,,0.00,825.000000,,2013-02-27 20:01:00,
2013-02-27 13:12:00,29.0,1.0,-100.00,SE,141,3.0,5.0,30,0.00,,,0.00,825.000000,,2013-02-27 20:12:00,
2013-02-27 13:21:00,29.0,1.0,-100.00,SE,141,3.0,5.0,30,0.00,,,0.00,825.000000,,2013-02-27 20:21:00,
2013-02-27 13:42:00,28.0,-1.0,-100.00,SE,139,3.0,5.0,28,0.00,,,-99.99,1028.000000,,2013-02-27 20:42:00,
2013-02-27 13:52:00,28.0,-1.0,-100.00,SE,139,3.0,5.0,28,0.00,,,-99.99,1028.000000,,2013-02-27 20:52:00,
2013-02-27 14:02:00,28.0,-1.0,-100.00,SE,139,3.0,5.0,28,0.00,,,-99.99,1028.000000,,2013-02-27 21:02:00,
2013-02-27 14:11:00,28.0,-1.0,-100.00,SE,139,3.0,5.0,28,0.00,,,-99.99,1028.000000,,2013-02-27 21:11:00,
2013-02-27 14:21:00,28.0,-1.0,-100.00,SE,139,3.0,5.0,28,0.00,,,-99.99,1028.000000,,2013-02-27 21:21:00,
2013-02-27 14:42:00,31.0,-2.0,-100.00,ESE,107,3.0,6.0,24,0.00,,,-99.99,959.000000,,2013-02-27 21:42:00,
2013-02-27 14:52:00,31.0,-2.0,-100.00,ESE,107,3.0,6.0,24,0.00,,,-99.99,959.000000,,2013-02-27 21:52:00,
2013-02-27 15:01:00,31.0,-2.0,-100.00,ESE,107,3.0,6.0,24,0.00,,,-99.99,959.000000,,2013-02-27 22:01:00,
2013-02-27 15:11:00,31.0,-2.0,-100.00,ESE,107,3.0,6.0,24,0.00,,,-99.99,959.000000,,2013-02-27 22:11:00,
2013-02-27 15:21:00,31.0,-2.0,-100.00,ESE,107,3.0,6.0,24,0.00,,,-99.99,959.000000,,2013-02-27 22:21:00,
2013-02-27 15:42:00,30.0,-3.0,-100.00,East,88,4.0,7.0,23,0.00,,,0.00,637.000000,,2013-02-27 22:42:00,
2013-02-27 15:52:00,30.0,-3.0,-100.00,East,88,4.0,7.0,23,0.00,,,0.00,637.000000,,2013-02-27 22:52:00,
2013-02-27 16:01:00,30.0,-3.0,-100.00,East,88,4.0,7.0,23,0.00,,,0.00,637.000000,,2013-02-27 23:01:00,
2013-02-27 16:11:00,30.0,-3.0,-100.00,East,88,4.0,7.0,23,0.00,,,0.00,637.000000,,2013-02-27 23:11:00,
2013-02-27 16:21:00,30.0,-3.0,-100.00,East,88,4.0,7.0,23,0.00,,,0.00,637.000000,,2013-02-27 23:21:00,
2013-02-27 16:42:00,28.0,-12.0,-100.00,NW,316,2.0,8.0,16,0.00,,,0.00,414.000000,,2013-02-27 23:42:00,
2013-02-27 16:53:00,28.0,-12.0,-100.00,NW,316,2.0,8.0,16,0.00,,,0.00,414.000000,,2013-02-27 23:53:00,
2013-02-27 17:02:00,28.0,-12.0,-100.00,NW,316,2.0,8.0,16,0.00,,,0.00,414.000000,,2013-02-28 00:02:00,
2013-02-27 17:12:00,28.0,-12.0,-100.00,NW,316,2.0,8.0,16,0.00,,,0.00,414.000000,,2013-02-28 00:12:00,
2013-02-27 17:21:00,28.0,-12.0,-100.00,NW,316,2.0,8.0,16,0.00,,,0.00,414.000000,,2013-02-28 00:21:00,
2013-02-27 17:42:00,20.0,-9.0,-100.00,NNW,328,2.0,5.0,27,0.00,,,0.00,38.000000,,2013-02-28 00:42:00,
2013-02-27 17:52:00,20.0,-9.0,-100.00,NNW,328,2.0,5.0,27,0.00,,,0.00,38.000000,,2013-02-28 00:52:00,
2013-02-27 18:01:00,20.0,-9.0,-100.00,NNW,328,2.0,5.0,27,0.00,,,0.00,38.000000,,2013-02-28 01:01:00,
2013-02-27 18:11:00,20.0,-9.0,-100.00,NNW,328,2.0,5.0,27,0.00,,,0.00,38.000000,,2013-02-28 01:11:00,
2013-02-27 18:21:00,20.0,-9.0,-100.00,NNW,328,2.0,5.0,27,0.00,,,0.00,38.000000,,2013-02-28 01:21:00,
2013-02-27 18:42:00,18.0,-14.0,-100.00,WSW,249,3.0,6.0,22,0.00,,,0.00,8.000000,,2013-02-28 01:42:00,
2013-02-27 18:52:00,18.0,-14.0,-100.00,WSW,249,3.0,6.0,22,0.00,,,0.00,8.000000,,2013-02-28 01:52:00,
2013-02-27 20:01:00,18.0,-4.0,-100.00,SW,215,7.0,13.0,36,0.00,,,0.00,0.000000,,2013-02-28 03:01:00,
2013-02-27 20:11:00,18.0,-4.0,-100.00,SW,215,7.0,13.0,36,0.00,,,0.00,0.000000,,2013-02-28 03:11:00,
2013-02-27 20:21:00,18.0,-4.0,-100.00,SW,215,7.0,13.0,36,0.00,,,0.00,0.000000,,2013-02-28 03:21:00,
2013-02-27 20:42:00,17.0,-4.0,-100.00,West,263,2.0,10.0,38,0.00,,,0.00,0.000000,,2013-02-28 03:42:00,
2013-02-27 20:52:00,17.0,-4.0,-100.00,West,263,2.0,10.0,38,0.00,,,0.00,0.000000,,2013-02-28 03:52:00,
2013-02-27 21:02:00,17.0,-4.0,-100.00,West,263,2.0,10.0,38,0.00,,,0.00,0.000000,,2013-02-28 04:02:00,
2013-02-27 21:11:00,17.0,-4.0,-100.00,West,263,2.0,10.0,38,0.00,,,0.00,0.000000,,2013-02-28 04:11:00,
2013-02-27 21:21:00,17.0,-4.0,-100.00,West,263,2.0,10.0,38,0.00,,,0.00,0.000000,,2013-02-28 04:21:00,
2013-02-27 21:42:00,14.0,-8.0,-100.00,ESE,115,3.0,7.0,36,0.00,,,0.00,0.000000,,2013-02-28 04:42:00,
2013-02-27 21:52:00,14.0,-8.0,-100.00,ESE,115,3.0,7.0,36,0.00,,,0.00,0.000000,,2013-02-28 04:52:00,
2013-02-27 22:01:00,14.0,-8.0,-100.00,ESE,115,3.0,7.0,36,0.00,,,0.00,0.000000,,2013-02-28 05:01:00,
2013-02-27 22:11:00,14.0,-8.0,-100.00,ESE,115,3.0,7.0,36,0.00,,,0.00,0.000000,,2013-02-28 05:11:00,
2013-02-27 22:22:00,14.0,-8.0,-100.00,ESE,115,3.0,7.0,36,0.00,,,0.00,0.000000,,2013-02-28 05:22:00,
2013-02-27 22:43:00,15.0,-6.0,-100.00,NE,43,3.0,8.0,38,0.00,,,0.00,0.000000,,2013-02-28 05:43:00,
2013-02-27 22:52:00,15.0,-6.0,-100.00,NE,43,3.0,8.0,38,0.00,,,0.00,0.000000,,2013-02-28 05:52:00,
2013-02-27 23:01:00,15.0,-6.0,-100.00,NE,43,3.0,8.0,38,0.00,,,0.00,0.000000,,2013-02-28 06:01:00,
2013-02-27 23:11:00,15.0,-6.0,-100.00,NE,43,3.0,8.0,38,0.00,,,0.00,0.000000,,2013-02-28 06:11:00,
2013-02-27 23:22:00,15.0,-6.0,-100.00,NE,43,3.0,8.0,38,0.00,,,0.00,0.000000,,2013-02-28 06:22:00,
2013-02-27 23:42:00,12.0,-6.0,-100.00,NNW,327,2.0,4.0,44,0.00,,,0.00,0.000000,,2013-02-28 06:42:00,
2013-02-27 23:52:00,12.0,-6.0,-100.00,NNW,327,2.0,4.0,44,0.00,,,0.00,0.000000,,2013-02-28 06:52:00,